Time,TemperatureF,DewpointF,PressureIn,WindDirection,WindDirectionDegrees,WindSpeedMPH,WindSpeedGustMPH,Humidity,HourlyPrecipIn,Conditions,Clouds,dailyrainin,SolarRadiationWatts/m^2,SoftwareType,DateUTC
2013-03-26 00:08:00,39.2,28.0,29.57,NNE,30,2.0,-999.0,65,-99.99,,,0.00,0,weatherlink.com 1.10,2013-03-26 04:08:00,
2013-03-26 00:23:00,38.9,29.0,29.57,NNE,26,2.0,-999.0,67,-99.99,,,0.00,0,weatherlink.com 1.10,2013-03-26 04:23:00,
2013-03-26 00:38:00,38.9,29.0,29.57,North,11,4.0,-999.0,67,-99.99,,,0.00,0,weatherlink.com 1.10,2013-03-26 04:38:00,
2013-03-26 00:53:00,39.0,29.0,29.57,NNE,13,0.0,-999.0,68,-99.99,,,0.00,0,weatherlink.com 1.10,2013-03-26 04:53:00,
2013-03-26 01:08:00,38.9,29.0,29.58,NNE,19,2.0,-999.0,69,-99.99,,,0.00,0,weatherlink.com 1.10,2013-03-26 05:08:00,
2013-03-26 01:23:00,38.8,29.0,29.58,NNE,17,0.0,-999.0,69,-99.99,,,0.00,0,weatherlink.com 1.10,2013-03-26 05:23:00,
2013-03-26 01:38:00,38.8,29.0,29.58,North,5,2.0,-999.0,69,-99.99,,,0.00,0,weatherlink.com 1.10,2013-03-26 05:38:00,
2013-03-26 01:53:00,38.7,29.0,29.58,North,11,3.0,-999.0,68,-99.99,,,0.00,0,weatherlink.com 1.10,2013-03-26 05:53:00,
2013-03-26 02:08:00,38.6,29.0,29.59,North,11,0.0,-999.0,69,-99.99,,,0.00,0,weatherlink.com 1.10,2013-03-26 06:08:00,
2013-03-26 02:23:00,38.3,29.0,29.59,North,11,0.0,-999.0,69,-99.99,,,0.00,0,weatherlink.com 1.10,2013-03-26 06:23:00,
2013-03-26 02:38:00,38.2,29.0,29.60,NNE,13,0.0,-999.0,70,-99.99,,,0.00,0,weatherlink.com 1.10,2013-03-26 06:38:00,
2013-03-26 02:53:00,38.2,29.0,29.60,NNE,13,0.0,-999.0,70,-99.99,,,0.00,0,weatherlink.com 1.10,2013-03-26 06:53:00,
2013-03-26 03:08:00,38.5,29.0,29.60,NNE,13,0.0,-999.0,70,-99.99,,,0.00,0,weatherlink.com 1.10,2013-03-26 07:08:00,
2013-03-26 03:23:00,38.3,29.0,29.60,NNE,13,0.0,-999.0,70,-99.99,,,0.00,0,weatherlink.com 1.10,2013-03-26 07:23:00,
2013-03-26 03:38:00,38.6,30.0,29.60,NNE,13,0.0,-999.0,70,-99.99,,,0.00,0,weatherlink.com 1.10,2013-03-26 07:38:00,
2013-03-26 03:53:00,38.5,29.0,29.60,NNE,13,0.0,-999.0,70,-99.99,,,0.00,0,weatherlink.com 1.10,2013-03-26 07:53:00,
2013-03-26 04:08:00,37.8,29.0,29.61,NNE,13,0.0,-999.0,71,-99.99,,,0.00,0,weatherlink.com 1.10,2013-03-26 08:08:00,
2013-03-26 04:23:00,37.3,29.0,29.61,NNE,13,0.0,-999.0,73,-99.99,,,0.00,0,weatherlink.com 1.10,2013-03-26 08:23:00,
2013-03-26 04:38:00,36.4,29.0,29.61,NNE,13,0.0,-999.0,75,-99.99,,,0.00,0,weatherlink.com 1.10,2013-03-26 08:38:00,
2013-03-26 04:53:00,35.8,29.0,29.62,NNE,13,0.0,-999.0,77,-99.99,,,0.00,0,weatherlink.com 1.10,2013-03-26 08:53:00,
2013-03-26 05:08:00,35.6,29.0,29.62,NNE,13,0.0,-999.0,77,-99.99,,,0.00,0,weatherlink.com 1.10,2013-03-26 09:08:00,
2013-03-26 05:23:00,35.8,29.0,29.63,NNE,13,0.0,-999.0,77,-99.99,,,0.00,0,weatherlink.com 1.10,2013-03-26 09:23:00,
2013-03-26 05:38:00,35.8,29.0,29.64,NNE,13,0.0,-999.0,77,-99.99,,,0.00,0,weatherlink.com 1.10,2013-03-26 09:38:00,
2013-03-26 05:53:00,36.2,30.0,29.64,NNE,13,0.0,-999.0,77,-99.99,,,0.00,0,weatherlink.com 1.10,2013-03-26 09:53:00,
2013-03-26 06:08:00,36.7,30.0,29.65,NNE,13,0.0,-999.0,76,-99.99,,,0.00,0,weatherlink.com 1.10,2013-03-26 10:08:00,
2013-03-26 06:23:00,37.1,30.0,29.65,NNE,13,0.0,-999.0,75,-99.99,,,0.00,0,weatherlink.com 1.10,2013-03-26 10:23:00,
2013-03-26 06:38:00,37.2,30.0,29.65,NNE,13,2.0,-999.0,74,-99.99,,,0.00,0,weatherlink.com 1.10,2013-03-26 10:38:00,
2013-03-26 06:53:00,37.6,30.0,29.66,NNE,13,0.0,-999.0,74,-99.99,,,0.00,0,weatherlink.com 1.10,2013-03-26 10:53:00,
2013-03-26 07:08:00,37.5,30.0,29.66,NNE,13,0.0,-999.0,75,-99.99,,,0.00,7,weatherlink.com 1.10,2013-03-26 11:08:00,
2013-03-26 07:23:00,36.9,30.0,29.67,NNE,13,0.0,-999.0,75,-99.99,,,0.00,19,weatherlink.com 1.10,2013-03-26 11:23:00,
2013-03-26 07:38:00,37.3,30.0,29.67,NNE,13,0.0,-999.0,75,-99.99,,,0.00,35,weatherlink.com 1.10,2013-03-26 11:38:00,
2013-03-26 07:53:00,37.9,31.0,29.68,NNE,13,0.0,-999.0,76,-99.99,,,0.00,49,weatherlink.com 1.10,2013-03-26 11:53:00,
2013-03-26 08:08:00,37.9,30.0,29.67,NNE,13,2.0,-999.0,74,-99.99,,,0.00,54,weatherlink.com 1.10,2013-03-26 12:08:00,
2013-03-26 08:23:00,37.5,30.0,29.69,NNE,13,0.0,-999.0,75,-99.99,,,0.00,74,weatherlink.com 1.10,2013-03-26 12:23:00,
2013-03-26 08:38:00,38.4,31.0,29.69,NNE,13,0.0,-999.0,75,-99.99,,,0.00,95,weatherlink.com 1.10,2013-03-26 12:38:00,
2013-03-26 08:53:00,38.8,30.0,29.69,NNE,13,0.0,-999.0,72,-99.99,,,0.00,149,weatherlink.com 1.10,2013-03-26 12:53:00,
2013-03-26 09:08:00,39.4,30.0,29.70,NNE,13,0.0,-999.0,70,-99.99,,,0.00,171,weatherlink.com 1.10,2013-03-26 13:08:00,
2013-03-26 09:23:00,40.6,30.0,29.69,NW,315,8.0,-999.0,65,-99.99,,,0.00,186,weatherlink.com 1.10,2013-03-26 13:23:00,
2013-03-26 09:38:00,40.7,30.0,29.70,West,271,6.0,-999.0,65,-99.99,,,0.00,190,weatherlink.com 1.10,2013-03-26 13:38:00,
2013-03-26 09:53:00,41.6,30.0,29.70,West,265,4.0,-999.0,64,-99.99,,,0.00,234,weatherlink.com 1.10,2013-03-26 13:53:00,
2013-03-26 10:08:00,41.9,30.0,29.71,WNW,285,1.0,-999.0,62,-99.99,,,0.00,279,weatherlink.com 1.10,2013-03-26 14:08:00,
2013-03-26 10:23:00,42.2,30.0,29.70,North,350,3.0,-999.0,62,-99.99,,,0.00,406,weatherlink.com 1.10,2013-03-26 14:23:00,
2013-03-26 10:38:00,42.9,30.0,29.71,NW,325,4.0,-999.0,60,-99.99,,,0.00,487,weatherlink.com 1.10,2013-03-26 14:38:00,
2013-03-26 10:53:00,43.2,30.0,29.71,WNW,286,6.0,-999.0,61,-99.99,,,0.00,756,weatherlink.com 1.10,2013-03-26 14:53:00,
2013-03-26 11:08:00,43.5,29.0,29.71,WNW,286,8.0,-999.0,58,-99.99,,,0.00,211,weatherlink.com 1.10,2013-03-26 15:08:00,
2013-03-26 11:23:00,43.3,30.0,29.71,NW,308,3.0,-999.0,59,-99.99,,,0.00,287,weatherlink.com 1.10,2013-03-26 15:23:00,
2013-03-26 11:38:00,44.1,30.0,29.71,NNW,348,7.0,-999.0,58,-99.99,,,0.00,236,weatherlink.com 1.10,2013-03-26 15:38:00,
2013-03-26 11:53:00,44.7,30.0,29.71,NNW,342,7.0,-999.0,56,-99.99,,,0.00,953,weatherlink.com 1.10,2013-03-26 15:53:00,
2013-03-26 12:08:00,45.2,30.0,29.71,NNW,342,4.0,-999.0,56,-99.99,,,0.00,262,weatherlink.com 1.10,2013-03-26 16:08:00,
2013-03-26 12:23:00,46.0,31.0,29.71,NNE,19,3.0,-999.0,56,-99.99,,,0.00,958,weatherlink.com 1.10,2013-03-26 16:23:00,
2013-03-26 12:38:00,46.1,30.0,29.71,NNE,13,8.0,-999.0,54,-99.99,,,0.00,229,weatherlink.com 1.10,2013-03-26 16:38:00,
2013-03-26 12:53:00,45.7,30.0,29.71,NNW,342,5.0,-999.0,55,-99.99,,,0.00,250,weatherlink.com 1.10,2013-03-26 16:53:00,
2013-03-26 13:08:00,45.7,31.0,29.71,NW,304,1.0,-999.0,57,-99.99,,,0.00,313,weatherlink.com 1.10,2013-03-26 17:08:00,
2013-03-26 13:23:00,46.0,30.0,29.71,NE,38,9.0,-999.0,54,-99.99,,,0.00,323,weatherlink.com 1.10,2013-03-26 17:23:00,
2013-03-26 13:38:00,46.8,30.0,29.71,North,355,6.0,-999.0,52,-99.99,,,0.00,1060,weatherlink.com 1.10,2013-03-26 17:38:00,
2013-03-26 13:53:00,46.1,31.0,29.71,NNE,18,4.0,-999.0,55,-99.99,,,0.00,236,weatherlink.com 1.10,2013-03-26 17:53:00,
2013-03-26 14:08:00,46.5,31.0,29.71,NNE,21,9.0,-999.0,55,-99.99,,,0.00,301,weatherlink.com 1.10,2013-03-26 18:08:00,
2013-03-26 14:23:00,46.6,30.0,29.71,NNE,20,7.0,-999.0,52,-99.99,,,0.00,970,weatherlink.com 1.10,2013-03-26 18:23:00,
2013-03-26 14:38:00,47.1,30.0,29.71,WNW,287,8.0,-999.0,51,-99.99,,,0.00,770,weatherlink.com 1.10,2013-03-26 18:38:00,
2013-03-26 14:53:00,47.2,29.0,29.71,North,360,3.0,-999.0,49,-99.99,,,0.00,373,weatherlink.com 1.10,2013-03-26 18:53:00,
2013-03-26 15:08:00,46.7,29.0,29.71,WNW,298,3.0,-999.0,51,-99.99,,,0.00,860,weatherlink.com 1.10,2013-03-26 19:08:00,
2013-03-26 15:23:00,47.6,29.0,29.72,NW,323,2.0,-999.0,49,-99.99,,,0.00,756,weatherlink.com 1.10,2013-03-26 19:23:00,
2013-03-26 15:38:00,47.4,28.0,29.71,North,11,5.0,-999.0,47,-99.99,,,0.00,287,weatherlink.com 1.10,2013-03-26 19:38:00,
2013-03-26 15:53:00,46.9,28.0,29.71,NNW,337,5.0,-999.0,48,-99.99,,,0.00,770,weatherlink.com 1.10,2013-03-26 19:53:00,
2013-03-26 16:08:00,46.6,27.0,29.72,NNW,344,2.0,-999.0,47,-99.99,,,0.00,84,weatherlink.com 1.10,2013-03-26 20:08:00,
2013-03-26 16:23:00,45.6,28.0,29.72,North,5,3.0,-999.0,50,-99.99,,,0.00,111,weatherlink.com 1.10,2013-03-26 20:23:00,
2013-03-26 16:38:00,45.3,28.0,29.73,NNE,14,6.0,-999.0,51,-99.99,,,0.00,158,weatherlink.com 1.10,2013-03-26 20:38:00,
2013-03-26 16:53:00,45.2,28.0,29.73,NW,316,6.0,-999.0,52,-99.99,,,0.00,132,weatherlink.com 1.10,2013-03-26 20:53:00,
2013-03-26 17:08:00,47.0,29.0,29.73,NNW,348,5.0,-999.0,49,-99.99,,,0.00,448,weatherlink.com 1.10,2013-03-26 21:08:00,
2013-03-26 17:23:00,47.0,27.0,29.74,NNE,13,7.0,-999.0,46,-99.99,,,0.00,429,weatherlink.com 1.10,2013-03-26 21:23:00,
2013-03-26 17:38:00,46.3,26.0,29.74,North,355,7.0,-999.0,46,-99.99,,,0.00,95,weatherlink.com 1.10,2013-03-26 21:38:00,
2013-03-26 17:53:00,45.5,27.0,29.74,NNE,21,3.0,-999.0,48,-99.99,,,0.00,79,weatherlink.com 1.10,2013-03-26 21:53:00,
2013-03-26 18:08:00,45.6,26.0,29.75,North,5,4.0,-999.0,47,-99.99,,,0.00,98,weatherlink.com 1.10,2013-03-26 22:08:00,
2013-03-26 18:23:00,45.5,27.0,29.75,NNE,20,2.0,-999.0,48,-99.99,,,0.00,39,weatherlink.com 1.10,2013-03-26 22:23:00,
2013-03-26 18:38:00,45.1,26.0,29.75,NW,314,0.0,-999.0,48,-99.99,,,0.00,33,weatherlink.com 1.10,2013-03-26 22:38:00,
2013-03-26 18:53:00,44.9,26.0,29.76,NNW,332,3.0,-999.0,48,-99.99,,,0.00,26,weatherlink.com 1.10,2013-03-26 22:53:00,
2013-03-26 19:08:00,44.8,25.0,29.76,NW,313,1.0,-999.0,47,-99.99,,,0.00,12,weatherlink.com 1.10,2013-03-26 23:08:00,
2013-03-26 19:23:00,44.5,26.0,29.77,West,278,1.0,-999.0,48,-99.99,,,0.00,0,weatherlink.com 1.10,2013-03-26 23:23:00,
2013-03-26 19:38:00,43.7,26.0,29.78,NNE,18,0.0,-999.0,50,-99.99,,,0.00,0,weatherlink.com 1.10,2013-03-26 23:38:00,
2013-03-26 19:53:00,42.9,25.0,29.78,NNE,18,0.0,-999.0,50,-99.99,,,0.00,0,weatherlink.com 1.10,2013-03-26 23:53:00,
2013-03-26 20:08:00,42.4,26.0,29.78,NNE,18,0.0,-999.0,52,-99.99,,,0.00,0,weatherlink.com 1.10,2013-03-27 00:08:00,
2013-03-26 20:23:00,42.0,26.0,29.79,NNE,18,0.0,-999.0,53,-99.99,,,0.00,0,weatherlink.com 1.10,2013-03-27 00:23:00,
2013-03-26 20:38:00,40.9,26.0,29.80,NNE,18,0.0,-999.0,56,-99.99,,,0.00,0,weatherlink.com 1.10,2013-03-27 00:38:00,
2013-03-26 20:53:00,39.9,26.0,29.80,NNE,18,0.0,-999.0,59,-99.99,,,0.00,0,weatherlink.com 1.10,2013-03-27 00:53:00,
2013-03-26 21:08:00,38.7,26.0,29.81,NNE,18,0.0,-999.0,61,-99.99,,,0.00,0,weatherlink.com 1.10,2013-03-27 01:08:00,
2013-03-26 21:23:00,37.7,27.0,29.81,NNE,18,0.0,-999.0,65,-99.99,,,0.00,0,weatherlink.com 1.10,2013-03-27 01:23:00,
2013-03-26 21:38:00,36.9,27.0,29.82,NNE,18,0.0,-999.0,67,-99.99,,,0.00,0,weatherlink.com 1.10,2013-03-27 01:38:00,
2013-03-26 21:53:00,36.6,27.0,29.82,NNE,18,0.0,-999.0,67,-99.99,,,0.00,0,weatherlink.com 1.10,2013-03-27 01:53:00,
2013-03-26 22:08:00,36.0,27.0,29.82,NNE,18,0.0,-999.0,69,-99.99,,,0.00,0,weatherlink.com 1.10,2013-03-27 02:08:00,
2013-03-26 22:23:00,35.2,27.0,29.82,NNE,18,0.0,-999.0,71,-99.99,,,0.00,0,weatherlink.com 1.10,2013-03-27 02:23:00,
2013-03-26 22:38:00,34.4,27.0,29.83,NNE,18,0.0,-999.0,73,-99.99,,,0.00,0,weatherlink.com 1.10,2013-03-27 02:38:00,
2013-03-26 22:53:00,33.7,27.0,29.83,NNE,18,0.0,-999.0,75,-99.99,,,0.00,0,weatherlink.com 1.10,2013-03-27 02:53:00,
2013-03-26 23:08:00,33.3,27.0,29.83,NNE,18,0.0,-999.0,77,-99.99,,,0.00,0,weatherlink.com 1.10,2013-03-27 03:08:00,
2013-03-26 23:23:00,32.6,26.0,29.83,NNE,18,0.0,-999.0,78,-99.99,,,0.00,0,weatherlink.com 1.10,2013-03-27 03:23:00,
2013-03-26 23:38:00,32.2,26.0,29.83,NNE,18,0.0,-999.0,79,-99.99,,,0.00,0,weatherlink.com 1.10,2013-03-27 03:38:00,
2013-03-26 23:53:00,31.9,27.0,29.83,NNE,18,0.0,-999.0,81,-99.99,,,0.00,0,weatherlink.com 1.10,2013-03-27 03:53:00,